createdAt,value
2022-09-28T00:01:44.557Z,58693.69
2022-09-28T00:04:12.074Z,58528.06
2022-09-28T00:06:38.940Z,58465.97
2022-09-28T00:09:05.425Z,58571.53
2022-09-28T00:11:31.809Z,58461.84
2022-09-28T00:14:02.377Z,58474.25
2022-09-28T00:16:35.503Z,58447.34
2022-09-28T00:19:02.949Z,58453.56
2022-09-28T00:21:31.469Z,58416.28
2022-09-28T00:24:18.231Z,58439.06
2022-09-28T00:26:54.057Z,58463.91
2022-09-28T00:29:34.731Z,58393.53
2022-09-28T00:32:03.479Z,58441.13
2022-09-28T00:34:31.904Z,58604.66
2022-09-28T00:36:59.477Z,58453.56
2022-09-28T00:39:27.062Z,58393.53
2022-09-28T00:41:54.274Z,58426.63
2022-09-28T00:44:26.629Z,58470.13
2022-09-28T00:46:56.669Z,58445.28
2022-09-28T00:49:32.525Z,58428.72
2022-09-28T00:51:59.492Z,58403.88
2022-09-28T00:54:26.026Z,58397.66
2022-09-28T00:56:52.535Z,58374.88
2022-09-28T00:59:18.937Z,58465.97
2022-09-28T01:01:45.464Z,58360.41
2022-09-28T01:04:12.280Z,58310.72
2022-09-28T01:06:39.009Z,58383.16
2022-09-28T01:09:07.879Z,58370.75
2022-09-28T01:11:37.524Z,58387.31
2022-09-28T01:14:06.807Z,58412.16
2022-09-28T01:16:59.603Z,58383.16
2022-09-28T01:19:44.343Z,58385.25
2022-09-28T01:22:32.050Z,58437.00
2022-09-28T01:25:10.769Z,58428.72
2022-09-28T01:27:37.072Z,58374.88
2022-09-28T01:30:04.778Z,58434.91
2022-09-28T01:32:57.342Z,58443.19
2022-09-28T01:35:28.393Z,58443.19
2022-09-28T01:37:54.736Z,58459.75
2022-09-28T01:40:23.079Z,58443.19
2022-09-28T01:42:53.861Z,58451.47
2022-09-28T01:45:24.698Z,58468.03
2022-09-28T01:47:51.463Z,58424.56
2022-09-28T01:50:21.032Z,58443.19
2022-09-28T01:52:52.686Z,58505.31
2022-09-28T01:55:26.108Z,58459.75
2022-09-28T01:57:56.717Z,58453.56
2022-09-28T02:00:24.338Z,58457.69
2022-09-28T02:03:02.399Z,58492.88
2022-09-28T02:05:28.679Z,58472.19
2022-09-28T02:08:09.628Z,58689.53
2022-09-28T02:10:44.263Z,58480.47
2022-09-28T02:13:23.475Z,58474.25
2022-09-28T02:16:00.110Z,58457.69
2022-09-28T02:18:26.547Z,58420.44
2022-09-28T02:21:00.787Z,58455.63
2022-09-28T02:23:29.238Z,58424.56
2022-09-28T02:26:08.009Z,58437.00
2022-09-28T02:28:34.475Z,58457.69
2022-09-28T02:31:00.941Z,58447.34
2022-09-28T02:33:36.940Z,58470.13
2022-09-28T02:36:04.012Z,58472.19
2022-09-28T02:38:31.283Z,58445.28
2022-09-28T02:41:05.334Z,58434.91
2022-09-28T02:43:41.135Z,58426.63
2022-09-28T02:46:28.166Z,58453.56
2022-09-28T02:49:25.757Z,58445.28
2022-09-28T02:52:06.148Z,58449.41
2022-09-28T02:54:51.049Z,58439.06
2022-09-28T02:57:26.003Z,58470.13
2022-09-28T02:59:58.430Z,58461.84
2022-09-28T03:02:30.447Z,58447.34
2022-09-28T03:05:35.916Z,58364.53
2022-09-28T03:08:04.206Z,58337.63
2022-09-28T03:10:39.148Z,58395.59
2022-09-28T03:13:06.005Z,58397.66
2022-09-28T03:15:34.315Z,58391.44
2022-09-28T03:18:00.959Z,58428.72
2022-09-28T03:20:28.665Z,58393.53
2022-09-28T03:23:22.872Z,58356.25
2022-09-28T03:25:41.573Z,58391.44
2022-09-28T03:28:07.960Z,58420.44
2022-09-28T03:30:34.333Z,58362.47
2022-09-28T03:33:02.352Z,58420.44
2022-09-28T03:35:28.736Z,58298.31
2022-09-28T03:37:58.240Z,58561.19
2022-09-28T03:40:24.732Z,58414.22
2022-09-28T03:42:51.210Z,58424.56
2022-09-28T03:45:17.767Z,58374.88
2022-09-28T03:47:48.571Z,58408.00
2022-09-28T03:50:15.894Z,58418.34
2022-09-28T03:52:42.366Z,58416.28
2022-09-28T03:55:09.067Z,58739.22
2022-09-28T03:57:35.469Z,58395.59
2022-09-28T04:00:02.935Z,58366.59
2022-09-28T04:02:30.696Z,58455.63
2022-09-28T04:04:57.212Z,58730.94
2022-09-28T04:07:25.224Z,58416.28
2022-09-28T04:09:54.319Z,58422.50
2022-09-28T04:12:20.700Z,58447.34
2022-09-28T04:14:47.089Z,58445.28
2022-09-28T04:17:13.598Z,58437.00
2022-09-28T04:19:40.023Z,58439.06
2022-09-28T04:22:06.405Z,58428.72
2022-09-28T04:24:33.626Z,58424.56
2022-09-28T04:27:19.974Z,58437.00
2022-09-28T04:29:46.360Z,58459.75
2022-09-28T04:32:12.863Z,58478.38
2022-09-28T04:34:43.269Z,58416.28
2022-09-28T04:37:10.619Z,58484.59
2022-09-28T04:39:36.993Z,58482.53
2022-09-28T04:42:03.445Z,58461.84
2022-09-28T04:44:29.968Z,58428.72
2022-09-28T04:46:56.393Z,58422.50
2022-09-28T04:49:24.374Z,58397.66
2022-09-28T04:51:50.808Z,58397.66
2022-09-28T04:54:17.302Z,58418.34
2022-09-28T04:56:43.760Z,58412.16
2022-09-28T04:59:10.248Z,58455.63
2022-09-28T05:01:36.930Z,58397.66
2022-09-28T05:04:03.461Z,58482.53
2022-09-28T05:06:30.842Z,58408.00
2022-09-28T05:08:57.476Z,58788.91
2022-09-28T05:11:24.037Z,58434.91
2022-09-28T05:13:50.535Z,58472.19
2022-09-28T05:16:17.415Z,58488.75
2022-09-28T05:18:43.863Z,58478.38
2022-09-28T05:21:14.845Z,58472.19
2022-09-28T05:23:41.612Z,58470.13
2022-09-28T05:26:08.080Z,58474.25
2022-09-28T05:28:34.473Z,58451.47
2022-09-28T05:31:02.884Z,58437.00
2022-09-28T05:33:29.681Z,58554.97
2022-09-28T05:36:00.916Z,58352.13
2022-09-28T05:38:28.367Z,58449.41
2022-09-28T05:40:54.801Z,58405.94
2022-09-28T05:43:21.401Z,58366.59
2022-09-28T05:45:52.915Z,58445.28
2022-09-28T05:48:21.710Z,58437.00
2022-09-28T05:50:52.378Z,58465.97
2022-09-28T05:53:19.008Z,58478.38
2022-09-28T05:55:45.588Z,58519.78
2022-09-28T05:58:12.168Z,58472.19
2022-09-28T06:00:38.680Z,58445.28
2022-09-28T06:03:09.147Z,58517.72
2022-09-28T06:05:36.809Z,58519.78
2022-09-28T06:08:05.029Z,58526.00
2022-09-28T06:10:31.917Z,58503.22
2022-09-28T06:12:58.827Z,58492.88
2022-09-28T06:15:28.700Z,58592.25
2022-09-28T06:18:14.817Z,58594.31
2022-09-28T06:20:41.912Z,58851.00
2022-09-28T06:23:12.171Z,58569.47
2022-09-28T06:25:39.116Z,58546.69
2022-09-28T06:28:08.859Z,58639.84
2022-09-28T06:30:38.023Z,58693.69
2022-09-28T06:33:05.471Z,58675.06
2022-09-28T06:35:32.517Z,58656.41
2022-09-28T06:37:59.860Z,58606.72
2022-09-28T06:40:27.396Z,58602.59
2022-09-28T06:42:59.006Z,58565.34
2022-09-28T06:45:26.890Z,58718.53
2022-09-28T06:48:00.308Z,58569.47
2022-09-28T06:50:35.864Z,58588.09
2022-09-28T06:53:02.247Z,58577.75
2022-09-28T06:55:29.077Z,58596.38
2022-09-28T06:58:00.111Z,58604.66
2022-09-28T07:00:27.694Z,58588.09
2022-09-28T07:02:54.227Z,58581.91
2022-09-28T07:05:24.013Z,58635.72
2022-09-28T07:07:50.411Z,58579.81
2022-09-28T07:10:19.121Z,58625.38
2022-09-28T07:12:47.741Z,58600.53
2022-09-28T07:15:14.283Z,58594.31
2022-09-28T07:17:55.869Z,58672.97
2022-09-28T07:20:26.408Z,58683.34
2022-09-28T07:22:59.218Z,58631.56
2022-09-28T07:25:32.304Z,58683.34
2022-09-28T07:27:59.757Z,58966.94
2022-09-28T07:30:27.940Z,58633.66
2022-09-28T07:32:54.890Z,58666.78
2022-09-28T07:35:22.205Z,58774.41
2022-09-28T07:37:48.589Z,58726.81
2022-09-28T07:40:34.110Z,58770.28
2022-09-28T07:43:05.124Z,58782.69
2022-09-28T07:45:36.017Z,58826.16
2022-09-28T07:48:03.576Z,58753.72
2022-09-28T07:50:30.881Z,58784.78
2022-09-28T07:52:57.731Z,58770.28
2022-09-28T07:55:24.653Z,58689.53
2022-09-28T07:58:00.947Z,58712.31
2022-09-28T08:00:33.225Z,58710.25
2022-09-28T08:03:03.737Z,58776.50
2022-09-28T08:05:32.047Z,58803.41
2022-09-28T08:07:59.604Z,58733.00
2022-09-28T08:10:26.572Z,58768.22
2022-09-28T08:12:59.274Z,58743.38
2022-09-28T08:15:29.713Z,58809.59
2022-09-28T08:17:59.103Z,58784.78
2022-09-28T08:20:50.753Z,58946.25
2022-09-28T08:23:18.011Z,58813.75
2022-09-28T08:25:51.349Z,58842.72
2022-09-28T08:28:18.027Z,58884.13
2022-09-28T08:30:48.313Z,58931.75
2022-09-28T08:33:17.478Z,59041.47
2022-09-28T08:35:44.605Z,59434.88
2022-09-28T08:38:11.017Z,59171.91
2022-09-28T08:41:00.283Z,59058.03
2022-09-28T08:43:51.273Z,59060.13
2022-09-28T08:46:23.761Z,59066.31
2022-09-28T08:51:52.934Z,59186.41
2022-09-28T08:54:43.012Z,59277.50
2022-09-28T08:57:19.285Z,59219.53
2022-09-28T08:59:49.975Z,59418.28
2022-09-28T09:02:49.058Z,59161.56
2022-09-28T09:05:20.974Z,59093.25
2022-09-28T09:08:05.798Z,59118.09
2022-09-28T09:10:51.121Z,59155.34
2022-09-28T09:13:51.689Z,59256.81
2022-09-28T09:16:39.137Z,59223.69
2022-09-28T09:19:16.345Z,59242.31
2022-09-28T09:22:09.884Z,59329.25
2022-09-28T09:24:49.801Z,59592.22
2022-09-28T09:27:53.680Z,59306.50
2022-09-28T09:30:22.398Z,59374.81
2022-09-28T09:33:31.518Z,59428.66
2022-09-28T09:36:20.137Z,59422.44
2022-09-28T09:39:19.007Z,59327.19
2022-09-28T09:42:04.238Z,59360.31
2022-09-28T09:44:38.951Z,59327.19
2022-09-28T09:47:09.850Z,59320.97
2022-09-28T09:49:46.021Z,59347.91
2022-09-28T09:52:23.769Z,59391.38
2022-09-28T09:55:29.643Z,59534.25
2022-09-28T09:58:10.127Z,59846.91
2022-09-28T10:00:41.539Z,59604.66
2022-09-28T10:03:37.119Z,59646.06
2022-09-28T10:06:07.014Z,59865.56
2022-09-28T10:08:59.754Z,59859.34
2022-09-28T10:11:29.541Z,59714.41
2022-09-28T10:13:56.801Z,59525.97
2022-09-28T10:16:24.061Z,59695.75
2022-09-28T10:18:50.599Z,59528.03
2022-09-28T10:21:20.428Z,59505.25
2022-09-28T10:23:51.599Z,59465.91
2022-09-28T10:26:28.256Z,59906.97
2022-09-28T10:29:01.397Z,59964.97
2022-09-28T10:31:44.000Z,60155.47
2022-09-28T10:34:14.100Z,60002.22
2022-09-28T10:37:01.500Z,59776.50
2022-09-28T10:39:32.419Z,59836.56
2022-09-28T10:41:59.785Z,60138.91
2022-09-28T10:44:28.683Z,60354.28
2022-09-28T10:46:57.139Z,60377.06
2022-09-28T10:49:24.798Z,60490.97
2022-09-28T10:51:54.514Z,60366.72
2022-09-28T10:54:23.153Z,60486.84
2022-09-28T10:56:50.832Z,60538.63
2022-09-28T10:59:24.598Z,60397.78
2022-09-28T11:02:01.707Z,60818.22
2022-09-28T11:04:30.667Z,60430.91
2022-09-28T11:09:37.735Z,60561.41
2022-09-28T11:12:06.189Z,60785.09
2022-09-28T11:14:38.380Z,60797.50
2022-09-28T11:17:44.949Z,60673.22
2022-09-28T11:20:28.186Z,60635.94
2022-09-28T11:23:00.008Z,60843.06
2022-09-28T11:25:28.091Z,60818.22
2022-09-28T11:27:54.373Z,60689.81
2022-09-28T11:30:44.743Z,60180.31
2022-09-28T11:33:22.536Z,60151.34
2022-09-28T11:36:12.195Z,60213.47
2022-09-28T11:39:08.181Z,60304.59
2022-09-28T11:41:55.930Z,60004.31
2022-09-28T11:44:34.471Z,60097.50
2022-09-28T11:47:09.903Z,59998.09
2022-09-28T11:49:50.362Z,59981.53
2022-09-28T11:52:22.840Z,59890.41
2022-09-28T11:54:55.705Z,60101.63
2022-09-28T11:57:25.348Z,60091.28
2022-09-28T11:59:54.593Z,59981.53
2022-09-28T12:02:24.705Z,60360.50
2022-09-28T12:04:55.843Z,59964.97
2022-09-28T12:07:38.425Z,59954.59
2022-09-28T12:10:09.489Z,59940.09
2022-09-28T12:12:45.474Z,60018.78
2022-09-28T12:15:19.179Z,60041.56
2022-09-28T12:17:50.540Z,60045.72
2022-09-28T12:20:27.471Z,60279.72
2022-09-28T12:23:00.029Z,60288.00
2022-09-28T12:25:28.307Z,60412.28
2022-09-28T12:27:58.522Z,60225.88
2022-09-28T12:30:25.631Z,60205.19
2022-09-28T12:33:09.110Z,60033.28
2022-09-28T12:35:50.699Z,60169.97
2022-09-28T12:38:38.475Z,60201.03
2022-09-28T12:41:17.039Z,60215.53
2022-09-28T12:43:43.371Z,60339.78
2022-09-28T12:46:13.191Z,60343.94
2022-09-28T12:52:15.325Z,60501.34
2022-09-28T12:54:53.253Z,60917.63
2022-09-28T12:57:48.815Z,60919.72
2022-09-28T13:00:18.434Z,60876.22
2022-09-28T13:03:05.281Z,60884.50
2022-09-28T13:06:00.439Z,60671.16
2022-09-28T13:08:32.892Z,60586.25
2022-09-28T13:11:08.505Z,60551.03
2022-09-28T13:14:03.321Z,60735.38
2022-09-28T13:16:41.521Z,60706.38
2022-09-28T13:19:16.797Z,60548.97
2022-09-28T13:22:20.944Z,60611.09
2022-09-28T13:24:48.803Z,60648.38
2022-09-28T13:27:19.377Z,60559.31
2022-09-28T13:29:49.938Z,60594.53
2022-09-28T13:32:17.655Z,60834.78
2022-09-28T13:34:48.007Z,60975.63
2022-09-28T13:37:16.878Z,60855.50
2022-09-28T13:39:51.791Z,60729.16
2022-09-28T13:42:24.011Z,60406.06
2022-09-28T13:44:54.051Z,60385.34
2022-09-28T13:47:32.414Z,60190.69
2022-09-28T13:50:43.903Z,60138.91
2022-09-28T13:53:44.336Z,60076.78
2022-09-28T13:56:41.738Z,60054.00
2022-09-28T13:59:27.677Z,60047.78
2022-09-28T14:02:06.905Z,59815.84
2022-09-28T14:05:00.885Z,59778.59
2022-09-28T14:07:36.407Z,59612.94
2022-09-28T14:10:24.500Z,59586.00
2022-09-28T14:12:52.879Z,59786.88
2022-09-28T14:15:28.654Z,59530.09
2022-09-28T14:18:24.133Z,59403.81
2022-09-28T14:21:00.277Z,59414.16
2022-09-28T14:23:56.340Z,59333.41
2022-09-28T14:26:41.474Z,59285.78
2022-09-28T14:29:29.309Z,59329.25
2022-09-28T14:31:58.221Z,59248.53
2022-09-28T14:34:41.599Z,59205.03
2022-09-28T14:37:56.480Z,59273.38
2022-09-28T14:41:12.586Z,59275.44
2022-09-28T14:43:44.906Z,59256.81
2022-09-28T14:46:11.292Z,59260.94
2022-09-28T14:48:55.032Z,59285.78
2022-09-28T14:51:27.498Z,59296.13
2022-09-28T14:53:56.075Z,59325.13
2022-09-28T14:56:22.485Z,59260.94
2022-09-28T14:58:54.990Z,59327.19
2022-09-28T15:01:24.555Z,59260.94
2022-09-28T15:03:54.482Z,59277.50
2022-09-28T15:06:25.044Z,59277.50
2022-09-28T15:08:53.786Z,59298.22
2022-09-28T15:11:23.588Z,59285.78
2022-09-28T15:13:53.822Z,59306.50
2022-09-28T15:16:23.848Z,59308.56
2022-09-28T15:18:59.742Z,59260.94
2022-09-28T15:21:33.828Z,59283.72
2022-09-28T15:24:00.361Z,59207.09
2022-09-28T15:26:32.248Z,59186.41
2022-09-28T15:28:59.496Z,59101.53
2022-09-28T15:31:27.234Z,59161.56
2022-09-28T15:34:12.304Z,59256.81
2022-09-28T15:36:41.115Z,59231.97
2022-09-28T15:39:14.743Z,59221.59
2022-09-28T15:41:46.020Z,59207.09
2022-09-28T15:44:12.339Z,59207.09
2022-09-28T15:46:44.082Z,59213.31
2022-09-28T15:49:38.806Z,59207.09
2022-09-28T15:52:05.845Z,59202.97
2022-09-28T15:54:38.788Z,59231.97
2022-09-28T15:57:05.236Z,59138.78
2022-09-28T15:59:39.650Z,59176.06
2022-09-28T16:02:24.046Z,59149.13
2022-09-28T16:04:55.434Z,59165.69
2022-09-28T16:07:27.976Z,59161.56
2022-09-28T16:10:00.483Z,59194.69
2022-09-28T16:12:31.339Z,59194.69
2022-09-28T16:14:59.611Z,59165.69
2022-09-28T16:17:35.326Z,59163.63
2022-09-28T16:20:20.918Z,59111.88
2022-09-28T16:22:47.830Z,59109.81
2022-09-28T16:25:24.155Z,59161.56
2022-09-28T16:27:52.699Z,59136.72
2022-09-28T16:30:28.718Z,59182.25
2022-09-28T16:33:06.014Z,59215.41
2022-09-28T16:35:35.416Z,59142.94
2022-09-28T16:38:12.250Z,59132.56
2022-09-28T16:40:40.370Z,59138.78
2022-09-28T16:43:08.754Z,59078.75
2022-09-28T16:45:35.385Z,59084.97
2022-09-28T16:48:03.021Z,59356.19
2022-09-28T16:50:29.410Z,59395.53
2022-09-28T16:53:27.841Z,59029.06
2022-09-28T16:55:54.237Z,59000.06
2022-09-28T16:58:22.206Z,58995.94
2022-09-28T17:00:48.608Z,59022.84
2022-09-28T17:03:17.223Z,58935.91
2022-09-28T17:05:44.112Z,59053.91
2022-09-28T17:08:17.376Z,58950.38
2022-09-28T17:11:13.532Z,58964.88
2022-09-28T17:13:35.911Z,58900.69
2022-09-28T17:16:10.252Z,58896.56
2022-09-28T17:18:39.067Z,58880.00
2022-09-28T17:21:09.206Z,58913.13
2022-09-28T17:23:35.624Z,58880.00
2022-09-28T17:26:02.218Z,58861.38
2022-09-28T17:28:32.163Z,58805.47
2022-09-28T17:30:58.617Z,58786.84
2022-09-28T17:33:25.201Z,58768.22
2022-09-28T17:35:52.760Z,58805.47
2022-09-28T17:38:19.138Z,58701.97
2022-09-28T17:40:46.848Z,58706.09
2022-09-28T17:43:13.297Z,58701.97
2022-09-28T17:45:41.035Z,58670.91
2022-09-28T17:48:11.212Z,59037.34
2022-09-28T17:50:39.240Z,58685.41
2022-09-28T17:53:07.602Z,58679.19
2022-09-28T17:55:36.291Z,58668.84
2022-09-28T17:58:16.684Z,58608.81
2022-09-28T18:00:47.078Z,58610.88
2022-09-28T18:03:26.360Z,58857.22
2022-09-28T18:06:07.135Z,58445.28
2022-09-28T18:08:34.730Z,58859.28
2022-09-28T18:11:07.524Z,58583.97
2022-09-28T18:13:38.252Z,58519.78
2022-09-28T18:16:07.485Z,58625.38
2022-09-28T18:18:36.837Z,58316.94
2022-09-28T18:21:06.286Z,58362.47
2022-09-28T18:23:39.923Z,58631.56
2022-09-28T18:26:15.314Z,58362.47
2022-09-28T18:28:47.662Z,58904.84
2022-09-28T18:31:17.825Z,58513.59
2022-09-28T18:33:44.493Z,58523.94
2022-09-28T18:36:19.588Z,58641.94
2022-09-28T18:38:46.327Z,58449.41
2022-09-28T18:41:17.851Z,58693.69
2022-09-28T18:43:50.747Z,58612.94
2022-09-28T18:46:18.256Z,58648.13
2022-09-28T18:48:44.849Z,58590.19
2022-09-28T18:51:14.002Z,58594.31
2022-09-28T18:53:40.723Z,58542.56
2022-09-28T18:56:08.474Z,58826.16
2022-09-28T18:58:36.376Z,58563.25
2022-09-28T19:01:29.418Z,58550.84
2022-09-28T19:03:59.981Z,58526.00
2022-09-28T19:06:26.415Z,58749.56
2022-09-28T19:08:55.403Z,58461.84
2022-09-28T19:11:22.290Z,58432.84
2022-09-28T19:13:48.684Z,58420.44
2022-09-28T19:16:24.015Z,58410.09
2022-09-28T19:18:52.320Z,58389.38
2022-09-28T19:21:19.309Z,58368.69
2022-09-28T19:23:49.304Z,58368.69
2022-09-28T19:26:18.456Z,58372.81
2022-09-28T19:28:44.863Z,58362.47
2022-09-28T19:31:11.960Z,58310.72
2022-09-28T19:33:39.394Z,58511.50
2022-09-28T19:36:08.790Z,58329.34
2022-09-28T19:38:36.553Z,58294.16
2022-09-28T19:41:09.379Z,58312.78
2022-09-28T19:43:36.203Z,58308.66
2022-09-28T19:46:04.994Z,58281.75
2022-09-28T19:48:32.269Z,58290.03
2022-09-28T19:51:00.994Z,58273.47
2022-09-28T19:53:30.257Z,58304.50
2022-09-28T19:55:57.880Z,58319.00
2022-09-28T19:58:28.985Z,58296.22
2022-09-28T20:00:55.309Z,58329.34
2022-09-28T20:03:21.753Z,58323.13
2022-09-28T20:05:49.294Z,58420.44
2022-09-28T20:08:16.272Z,58356.25
2022-09-28T20:10:54.459Z,58410.09
2022-09-28T20:13:21.482Z,58472.19
2022-09-28T20:15:48.237Z,58445.28
2022-09-28T20:18:14.929Z,58441.13
2022-09-28T20:20:42.512Z,58482.53
2022-09-28T20:23:09.393Z,58453.56
2022-09-28T20:25:35.786Z,58453.56
2022-09-28T20:28:02.234Z,58447.34
2022-09-28T20:30:28.602Z,58416.28
2022-09-28T20:32:55.049Z,58434.91
2022-09-28T20:35:32.267Z,58445.28
2022-09-28T20:38:07.691Z,58428.72
2022-09-28T20:40:35.156Z,58387.31
2022-09-28T20:43:01.666Z,58379.03
2022-09-28T20:45:28.068Z,58399.72
2022-09-28T20:47:54.457Z,58374.88
2022-09-28T20:50:22.003Z,58341.78
2022-09-28T20:52:48.492Z,58383.16
2022-09-28T20:55:14.996Z,58290.03
2022-09-28T20:57:41.403Z,58387.31
2022-09-28T21:00:08.877Z,58327.28
2022-09-28T21:02:35.268Z,58312.78
2022-09-28T21:05:01.843Z,58376.97
2022-09-28T21:07:28.222Z,58387.31
2022-09-28T21:09:54.644Z,58383.16
2022-09-28T21:12:21.113Z,58418.34
2022-09-28T21:14:47.503Z,58455.63
2022-09-28T21:17:13.903Z,58430.78
2022-09-28T21:19:40.284Z,58376.97
2022-09-28T21:22:07.511Z,58354.19
2022-09-28T21:24:34.019Z,58544.63
2022-09-28T21:27:00.414Z,58695.75
2022-09-28T21:29:26.921Z,58426.63
2022-09-28T21:31:53.376Z,58354.19
2022-09-28T21:34:20.808Z,58387.31
2022-09-28T21:36:54.628Z,58424.56
2022-09-28T21:39:21.188Z,58478.38
2022-09-28T21:41:48.014Z,58337.63
2022-09-28T21:44:14.507Z,58712.31
2022-09-28T21:46:41.953Z,58432.84
2022-09-28T21:49:08.596Z,58370.75
2022-09-28T21:51:35.812Z,58372.81
2022-09-28T21:54:02.202Z,58393.53
2022-09-28T21:56:28.628Z,58354.19
2022-09-28T21:58:55.401Z,58619.16
2022-09-28T22:01:23.607Z,58399.72
2022-09-28T22:03:55.009Z,58300.38
2022-09-28T22:06:22.816Z,58339.69
2022-09-28T22:08:49.781Z,58269.31
2022-09-28T22:11:18.706Z,58277.59
2022-09-28T22:13:46.375Z,58169.97
2022-09-28T22:16:14.352Z,58232.06
2022-09-28T22:18:40.972Z,58271.41
2022-09-28T22:21:15.297Z,58242.41
2022-09-28T22:23:42.167Z,58617.09
2022-09-28T22:26:17.647Z,58238.28
2022-09-28T22:28:49.350Z,58238.28
2022-09-28T22:31:16.791Z,58105.81
2022-09-28T22:33:43.686Z,58234.13
2022-09-28T22:36:10.637Z,58161.69
2022-09-28T22:38:37.592Z,58188.59
2022-09-28T22:41:04.151Z,58143.06
2022-09-28T22:43:31.088Z,58136.84
2022-09-28T22:46:08.895Z,58221.72
2022-09-28T22:48:35.771Z,58105.81
2022-09-28T22:51:02.819Z,58126.50
2022-09-28T22:53:29.699Z,58134.78
2022-09-28T22:55:56.631Z,58052.00
2022-09-28T22:58:23.579Z,58068.53
2022-09-28T23:00:50.091Z,58399.72
2022-09-28T23:03:17.594Z,58103.72
2022-09-28T23:05:54.453Z,58112.00
2022-09-28T23:08:21.688Z,58056.13
2022-09-28T23:10:48.096Z,58066.47
2022-09-28T23:13:14.633Z,58062.34
2022-09-28T23:15:41.226Z,58130.63
2022-09-28T23:18:08.580Z,58130.63
2022-09-28T23:20:36.473Z,58145.13
2022-09-28T23:23:03.045Z,58182.38
2022-09-28T23:25:29.505Z,58395.59
2022-09-28T23:27:55.918Z,58503.22
2022-09-28T23:30:24.677Z,58074.75
2022-09-28T23:32:54.237Z,58167.91
2022-09-28T23:35:20.840Z,58184.47
2022-09-28T23:37:51.418Z,58203.09
2022-09-28T23:40:18.146Z,58586.03
2022-09-28T23:42:44.638Z,58428.72
2022-09-28T23:45:11.371Z,58182.38
2022-09-28T23:47:38.124Z,58215.50
2022-09-28T23:50:05.771Z,58449.41
2022-09-28T23:52:32.147Z,58221.72
2022-09-28T23:54:58.559Z,58234.13
2022-09-28T23:57:25.513Z,58192.72
2022-09-28T23:59:51.909Z,58178.25
